Time;durP1;ratioP1;P1;durP2;ratioP2;P2;SDS_P1;SDS_P2;PMS_P1;PMS_P2;Temp;Humidity;BMP_temperature;BMP_pressure;BME280_temperature;BME280_humidity;BME280_pressure;Samples;Min_cycle;Max_cycle;Signal;HPM_P1;HPM_P2
2023/03/30 00:01:01;;;;;;;6.93;1.60;;;;;;;13.36;66.64;96927.81;5028490;28;20041;-61
2023/03/30 00:03:28;;;;;;;9.30;2.30;;;;;;;13.31;66.25;96929.75;5023188;28;20048;-61
2023/03/30 00:05:55;;;;;;;7.90;1.63;;;;;;;13.44;65.21;96926.41;5021475;28;20109;-61
2023/03/30 00:08:29;;;;;;;9.43;2.30;;;;;;;13.48;64.69;96930.22;5026524;28;20041;-61
2023/03/30 00:11:22;;;;;;;11.88;3.53;;;;;;;13.62;64.98;96916.81;5026414;28;20730;-61
2023/03/30 00:13:49;;;;;;;9.38;2.50;;;;;;;13.67;64.06;96907.78;5026831;28;20570;-61
2023/03/30 00:16:16;;;;;;;12.82;2.35;;;;;;;13.72;64.32;96915.09;5016805;28;20133;-61
2023/03/30 00:18:46;;;;;;;7.05;2.35;;;;;;;13.69;64.38;96902.88;5024918;28;20045;-61
2023/03/30 00:21:16;;;;;;;11.48;3.90;;;;;;;13.59;64.77;96906.47;5024234;28;20045;-61
2023/03/30 00:23:46;;;;;;;8.93;2.10;;;;;;;13.47;65.77;96903.28;5028642;28;20057;-61
2023/03/30 00:26:13;;;;;;;9.45;2.60;;;;;;;13.40;65.91;96893.53;5024413;28;20049;-61
2023/03/30 00:28:40;;;;;;;6.93;2.72;;;;;;;13.43;65.76;96889.44;5023366;28;20106;-61
2023/03/30 00:31:07;;;;;;;7.93;1.92;;;;;;;13.32;66.59;96883.25;5029505;28;20033;-61
2023/03/30 00:33:33;;;;;;;9.43;1.70;;;;;;;13.36;66.76;96886.22;5021892;28;20500;-60
2023/03/30 00:36:11;;;;;;;6.75;1.80;;;;;;;13.29;66.53;96881.09;5024343;28;20037;-61
2023/03/30 00:38:39;;;;;;;8.63;1.83;;;;;;;13.14;67.69;96882.81;5023368;28;20682;-61
2023/03/30 00:41:06;;;;;;;11.73;2.78;;;;;;;13.17;67.65;96886.06;5024991;28;20037;-61
2023/03/30 00:43:32;;;;;;;13.25;2.65;;;;;;;12.91;69.72;96864.47;5022467;28;20697;-61
2023/03/30 00:45:59;;;;;;;11.15;2.03;;;;;;;12.90;69.31;96865.56;5026505;28;20067;-60
2023/03/30 00:48:29;;;;;;;11.73;2.53;;;;;;;12.93;68.97;96870.44;5024276;28;20052;-61
2023/03/30 00:51:09;;;;;;;10.82;1.80;;;;;;;13.03;68.81;96864.09;5027330;28;20692;-61
2023/03/30 00:53:42;;;;;;;10.52;1.90;;;;;;;13.18;68.35;96860.50;5031617;28;20530;-61
2023/03/30 00:56:12;;;;;;;11.27;2.05;;;;;;;13.32;68.09;96863.41;5029734;28;20044;-62
2023/03/30 00:58:40;;;;;;;12.55;2.85;;;;;;;13.33;67.73;96863.13;5024430;28;20111;-61
2023/03/30 01:01:11;;;;;;;9.95;2.28;;;;;;;13.38;67.88;96871.22;5023901;28;20053;-60
2023/03/30 01:04:01;;;;;;;10.82;1.90;;;;;;;13.36;67.79;96870.72;5024818;28;20646;-61
2023/03/30 01:06:30;;;;;;;11.00;2.05;;;;;;;13.26;68.38;96862.63;5022346;28;20045;-60
2023/03/30 01:08:57;;;;;;;12.65;3.40;;;;;;;13.35;68.08;96852.75;5024297;28;20049;-61
2023/03/30 01:11:25;;;;;;;13.18;2.92;;;;;;;13.35;68.06;96865.56;5024104;28;20064;-60
2023/03/30 01:14:03;;;;;;;8.60;1.58;;;;;;;13.37;67.81;96877.78;5024037;28;20083;-61
2023/03/30 01:16:42;;;;;;;10.65;1.98;;;;;;;13.38;68.05;96895.72;5022619;28;20777;-61
2023/03/30 01:19:24;;;;;;;6.28;1.75;;;;;;;13.42;68.04;96895.97;5022373;28;20045;-60
2023/03/30 01:21:54;;;;;;;;;;;;;;;13.39;68.72;96900.03;5024096;28;20087;-61
2023/03/30 01:24:52;;;;;;;10.40;2.33;;;;;;;13.32;69.95;96879.72;5022482;28;20436;-60
2023/03/30 01:27:49;;;;;;;13.40;2.10;;;;;;;13.12;70.96;96859.72;5011211;28;20056;-60
2023/03/30 01:30:58;;;;;;;13.40;2.47;;;;;;;13.11;71.41;96868.97;5023021;28;20060;-60
2023/03/30 01:33:44;;;;;;;8.70;2.17;;;;;;;13.09;72.00;96861.09;5011042;28;20044;-61
2023/03/30 01:36:29;;;;;;;13.48;2.63;;;;;;;12.97;72.98;96856.00;5020825;28;20087;-61
2023/03/30 01:39:18;;;;;;;9.30;3.20;;;;;;;12.98;73.62;96862.25;5019892;28;20053;-61
2023/03/30 01:41:53;;;;;;;14.55;2.42;;;;;;;13.07;73.81;96873.34;5024618;28;20046;-61
2023/03/30 01:44:35;;;;;;;12.25;2.28;;;;;;;13.04;74.20;96887.50;5024314;28;20046;-61
2023/03/30 01:47:13;;;;;;;13.82;2.65;;;;;;;13.07;74.57;96884.19;5028983;28;20038;-61
2023/03/30 01:50:00;;;;;;;16.30;2.10;;;;;;;13.01;75.40;96870.66;5023119;28;20496;-59
2023/03/30 01:53:03;;;;;;;7.13;1.45;;;;;;;12.94;76.06;96869.34;5021678;28;20064;-61
2023/03/30 01:55:33;;;;;;;12.43;3.40;;;;;;;12.92;76.60;96861.47;5003057;28;20053;-60
2023/03/30 01:58:09;;;;;;;7.85;1.65;;;;;;;13.01;76.75;96870.66;5025527;28;20050;-60
2023/03/30 02:00:40;;;;;;;10.38;2.30;;;;;;;12.99;77.44;96880.19;5024491;28;20064;-60
2023/03/30 02:03:16;;;;;;;14.60;2.40;;;;;;;12.96;78.08;96884.28;5025525;28;20041;-60
2023/03/30 02:05:45;;;;;;;9.48;2.58;;;;;;;13.03;77.99;96888.56;5022894;28;20143;-60
2023/03/30 02:08:16;;;;;;;11.90;2.63;;;;;;;12.88;78.91;96893.81;5019400;28;20073;-61
2023/03/30 02:10:45;;;;;;;10.73;1.90;;;;;;;12.74;79.99;96896.31;5021515;28;20041;-60
2023/03/30 02:13:14;;;;;;;13.50;2.95;;;;;;;12.79;79.89;96897.38;5022431;28;20033;-62
2023/03/30 02:15:44;;;;;;;11.10;2.15;;;;;;;12.66;80.23;96893.34;5021724;28;20072;-59
2023/03/30 02:18:11;;;;;;;12.20;1.80;;;;;;;12.68;80.76;96894.69;5024624;28;20448;-61
2023/03/30 02:20:38;;;;;;;18.52;2.60;;;;;;;12.60;81.24;96890.66;5020730;28;20537;-61
2023/03/30 02:23:06;;;;;;;11.57;2.47;;;;;;;12.51;81.88;96895.03;5021283;28;20125;-61
2023/03/30 02:25:35;;;;;;;12.18;2.08;;;;;;;12.55;81.89;96895.28;5023177;28;20044;-61
2023/03/30 02:28:01;;;;;;;10.82;2.28;;;;;;;12.51;82.41;96891.50;5023246;28;20037;-61
2023/03/30 02:30:33;;;;;;;10.57;2.13;;;;;;;12.59;81.97;96890.94;5027104;28;20091;-61
2023/03/30 02:32:59;;;;;;;13.55;2.53;;;;;;;12.58;82.29;96879.28;5028091;28;20040;-61
2023/03/30 02:35:47;;;;;;;9.73;2.72;;;;;;;12.56;82.73;96873.28;5020781;28;20080;-61
2023/03/30 02:38:39;;;;;;;13.32;2.35;;;;;;;12.58;83.10;96883.88;5028029;28;20042;-61
2023/03/30 02:41:28;;;;;;;8.05;1.92;;;;;;;12.67;84.03;96878.69;5020566;28;20034;-61
2023/03/30 02:44:12;;;;;;;12.10;2.78;;;;;;;12.61;86.53;96878.69;5026095;28;20560;-61
2023/03/30 02:46:50;;;;;;;11.57;2.10;;;;;;;12.61;87.50;96883.34;5021449;28;20049;-61
2023/03/30 02:49:45;;;;;;;13.48;2.97;;;;;;;12.36;91.80;96866.84;5020360;28;20045;-60
2023/03/30 02:52:40;;;;;;;9.90;3.08;;;;;;;12.25;94.37;96840.81;5020700;28;20041;-61
2023/03/30 02:55:44;;;;;;;12.75;3.17;;;;;;;12.03;98.04;96809.38;5031140;28;20052;-60
2023/03/30 02:58:55;;;;;;;12.88;2.35;;;;;;;11.79;100.00;96817.28;5019229;28;20059;-60
2023/03/30 03:01:34;;;;;;;10.15;2.58;;;;;;;11.54;100.00;96825.16;5018663;28;20045;-61
2023/03/30 03:04:10;;;;;;;12.05;2.53;;;;;;;11.50;100.00;96824.06;5021129;28;20525;-61
2023/03/30 03:06:46;;;;;;;9.98;2.28;;;;;;;11.58;100.00;96826.25;5028745;28;20408;-61
2023/03/30 03:09:14;;;;;;;10.23;3.17;;;;;;;11.49;100.00;96822.44;5029011;28;20056;-60
2023/03/30 03:11:40;;;;;;;10.00;2.08;;;;;;;11.50;100.00;96815.94;5035254;28;20132;-60
2023/03/30 03:14:08;;;;;;;9.18;2.58;;;;;;;11.49;100.00;96805.34;5012906;28;20049;-61
2023/03/30 03:16:34;;;;;;;9.63;2.20;;;;;;;11.54;100.00;96805.38;5026409;28;20039;-61
2023/03/30 03:19:09;;;;;;;12.63;2.40;;;;;;;11.56;100.00;96814.03;5031214;28;20098;-60
2023/03/30 03:21:38;;;;;;;9.95;2.50;;;;;;;11.56;100.00;96806.72;5025736;28;20052;-60
2023/03/30 03:24:05;;;;;;;9.15;2.20;;;;;;;11.49;100.00;96806.19;5031471;28;20051;-61
2023/03/30 03:26:55;;;;;;;13.10;3.25;;;;;;;11.44;100.00;96792.63;5020347;28;20061;-61
2023/03/30 03:29:22;;;;;;;11.95;2.50;;;;;;;11.25;100.00;96790.47;5024198;28;20049;-60
2023/03/30 03:31:49;;;;;;;10.50;3.45;;;;;;;11.23;100.00;96784.50;5028353;28;20067;-61
2023/03/30 03:34:19;;;;;;;13.32;2.85;;;;;;;11.23;100.00;96779.09;5025794;28;20178;-61
2023/03/30 03:36:58;;;;;;;15.60;3.28;;;;;;;11.20;100.00;96785.03;5023120;28;20509;-61
2023/03/30 03:39:27;;;;;;;15.45;4.00;;;;;;;11.26;100.00;96807.53;5027960;28;20043;-61
2023/03/30 03:42:05;;;;;;;14.68;3.90;;;;;;;11.30;100.00;96803.22;5020475;28;20136;-60
2023/03/30 03:44:36;;;;;;;12.02;3.10;;;;;;;11.29;100.00;96786.16;5027868;28;20076;-61
2023/03/30 03:47:03;;;;;;;12.52;2.88;;;;;;;11.32;100.00;96798.34;5030998;28;20047;-61
2023/03/30 03:49:29;;;;;;;11.82;3.28;;;;;;;11.36;100.00;96801.31;5028427;28;20511;-61
2023/03/30 03:51:56;;;;;;;10.95;2.20;;;;;;;11.35;100.00;96789.66;5033043;28;20049;-61
2023/03/30 03:54:23;;;;;;;15.88;2.95;;;;;;;11.32;100.00;96780.16;5026780;28;20152;-61
2023/03/30 03:56:51;;;;;;;7.20;2.47;;;;;;;11.23;100.00;96773.66;5030353;28;20044;-61
2023/03/30 03:59:17;;;;;;;13.93;3.33;;;;;;;11.22;100.00;96772.03;5026977;28;20157;-61
2023/03/30 04:01:46;;;;;;;9.77;2.83;;;;;;;11.18;100.00;96781.81;5027953;28;20049;-59
2023/03/30 04:04:12;;;;;;;12.77;2.95;;;;;;;11.21;100.00;96770.44;5030545;28;20044;-61
2023/03/30 04:06:39;;;;;;;8.65;2.25;;;;;;;11.02;100.00;96786.41;5029890;28;20033;-61
2023/03/30 04:09:07;;;;;;;18.45;4.07;;;;;;;11.04;100.00;96776.91;5024052;28;20061;-60
2023/03/30 04:12:05;;;;;;;12.35;2.63;;;;;;;11.03;100.00;96763.63;5013477;28;20111;-60
2023/03/30 04:14:40;;;;;;;10.45;3.33;;;;;;;11.08;100.00;96747.38;5029797;28;20056;-61
2023/03/30 04:17:32;;;;;;;16.15;3.25;;;;;;;11.15;100.00;96733.56;5028587;28;20079;-61
2023/03/30 04:20:34;;;;;;;12.77;2.25;;;;;;;11.12;100.00;96736.81;5017617;28;20126;-61
2023/03/30 04:23:29;;;;;;;8.93;2.95;;;;;;;11.04;100.00;96730.88;5026752;28;20310;-61
2023/03/30 04:26:16;;;;;;;13.70;3.75;;;;;;;10.99;100.00;96722.72;5026148;28;20053;-61
2023/03/30 04:29:05;;;;;;;13.55;3.42;;;;;;;10.96;100.00;96711.63;5027024;28;20652;-61
2023/03/30 04:31:45;;;;;;;10.65;3.10;;;;;;;10.96;100.00;96709.72;5028819;28;20052;-60
2023/03/30 04:34:29;;;;;;;10.85;2.78;;;;;;;10.98;100.00;96704.84;5030024;28;20459;-61
2023/03/30 04:37:17;;;;;;;10.85;3.53;;;;;;;11.04;100.00;96709.19;5031208;28;20056;-61
2023/03/30 04:40:08;;;;;;;11.05;3.08;;;;;;;11.03;100.00;96693.22;5023866;28;20056;-61
2023/03/30 04:42:54;;;;;;;11.80;2.92;;;;;;;11.01;100.00;96707.03;5023446;28;20046;-61
2023/03/30 04:45:41;;;;;;;12.65;2.85;;;;;;;11.08;100.00;96695.09;5034486;28;20049;-60
2023/03/30 04:48:27;;;;;;;14.95;3.50;;;;;;;11.02;100.00;96692.38;5003460;28;20521;-61
2023/03/30 04:51:13;;;;;;;10.57;3.10;;;;;;;10.95;100.00;96689.16;5025147;28;20550;-61
2023/03/30 04:53:58;;;;;;;15.77;2.80;;;;;;;10.91;100.00;96697.00;5023073;28;20258;-61
2023/03/30 04:56:43;;;;;;;11.40;2.83;;;;;;;10.93;100.00;96696.72;5027745;28;20053;-61
2023/03/30 04:59:28;;;;;;;18.30;3.97;;;;;;;10.91;100.00;96702.41;5025406;28;20052;-61
2023/03/30 05:02:30;;;;;;;14.07;3.55;;;;;;;10.98;100.00;96704.06;4959128;28;20066;-61
2023/03/30 05:05:15;;;;;;;13.90;3.22;;;;;;;10.97;100.00;96697.81;5015765;28;20053;-61
2023/03/30 05:08:06;;;;;;;9.45;2.70;;;;;;;11.13;100.00;96685.06;5023988;28;20051;-61
2023/03/30 05:10:46;;;;;;;15.77;3.28;;;;;;;11.19;100.00;96685.88;5029625;28;20044;-60
2023/03/30 05:13:39;;;;;;;9.20;2.67;;;;;;;11.28;100.00;96669.88;5028271;28;20072;-60
2023/03/30 05:16:24;;;;;;;7.97;2.88;;;;;;;11.32;100.00;96660.91;5031478;28;20432;-60
2023/03/30 05:19:29;;;;;;;13.98;4.70;;;;;;;11.39;100.00;96666.03;4983493;28;20422;-59
2023/03/30 05:22:13;;;;;;;10.32;2.92;;;;;;;11.48;100.00;96671.72;4980873;28;20050;-61
2023/03/30 05:24:45;;;;;;;8.38;2.65;;;;;;;11.47;100.00;96672.81;5002827;28;20057;-60
2023/03/30 05:27:14;;;;;;;10.32;2.55;;;;;;;11.54;100.00;96661.69;5025926;28;20110;-60
2023/03/30 05:30:04;;;;;;;15.07;4.10;;;;;;;11.53;100.00;96655.44;5027271;28;20048;-60
2023/03/30 05:32:41;;;;;;;;;;;;;;;11.49;100.00;96653.53;5027206;28;20700;-60
2023/03/30 05:35:23;;;;;;;;;;;;;;;11.50;100.00;96645.16;5026922;28;19925;-60
2023/03/30 05:38:08;;;;;;;11.77;4.28;;;;;;;11.52;100.00;96656.53;5035221;28;20059;-61
2023/03/30 05:40:53;;;;;;;10.77;2.40;;;;;;;11.64;100.00;96661.66;5024607;28;20420;-60
2023/03/30 05:43:46;;;;;;;10.55;3.03;;;;;;;11.66;100.00;96678.47;5004167;28;21739;-61
2023/03/30 05:46:28;;;;;;;10.13;2.53;;;;;;;11.63;100.00;96686.31;5020789;28;20143;-60
2023/03/30 05:49:06;;;;;;;13.20;2.10;;;;;;;11.76;100.00;96715.56;5030223;28;20037;-60
2023/03/30 05:51:45;;;;;;;17.13;2.58;;;;;;;11.88;99.88;96733.44;5029005;28;20122;-60
2023/03/30 05:54:20;;;;;;;8.85;2.58;;;;;;;11.67;100.00;96766.03;5030569;28;20037;-60
2023/03/30 05:57:05;;;;;;;9.48;2.83;;;;;;;11.68;100.00;96757.63;5026921;28;20057;-60
2023/03/30 05:59:38;;;;;;;12.77;2.25;;;;;;;11.74;100.00;96769.28;5020827;28;20049;-60
2023/03/30 06:02:26;;;;;;;11.63;2.95;;;;;;;11.85;99.89;96794.50;5023712;28;20053;-61
2023/03/30 06:05:00;;;;;;;13.00;2.83;;;;;;;11.75;100.00;96794.53;5023416;28;20037;-60
2023/03/30 06:07:27;;;;;;;13.60;3.42;;;;;;;11.90;100.00;96804.53;5021061;28;20156;-61
2023/03/30 06:09:54;;;;;;;8.80;2.42;;;;;;;11.63;100.00;96801.03;5022826;28;20106;-60
2023/03/30 06:12:25;;;;;;;8.85;2.60;;;;;;;11.73;100.00;96815.66;5025133;28;20069;-61
2023/03/30 06:14:53;;;;;;;7.85;2.75;;;;;;;11.47;100.00;96802.94;5016381;28;20660;-60
2023/03/30 06:17:24;;;;;;;10.35;3.00;;;;;;;11.57;100.00;96826.50;5025056;28;20048;-60
2023/03/30 06:19:51;;;;;;;16.55;3.88;;;;;;;11.54;100.00;96832.50;5026617;28;20037;-61
2023/03/30 06:22:18;;;;;;;13.82;4.18;;;;;;;11.64;100.00;96826.25;5032360;28;20043;-60
2023/03/30 06:25:02;;;;;;;12.10;2.83;;;;;;;11.52;100.00;96830.06;5022937;28;20041;-61
2023/03/30 06:27:31;;;;;;;17.20;2.83;;;;;;;11.61;100.00;96824.09;5026258;28;20568;-60
2023/03/30 06:29:58;;;;;;;7.47;2.80;;;;;;;11.64;100.00;96834.41;5028848;28;20778;-60
2023/03/30 06:32:25;;;;;;;8.38;2.63;;;;;;;11.60;100.00;96839.53;5024053;28;20577;-60
2023/03/30 06:35:16;;;;;;;12.23;2.45;;;;;;;11.60;100.00;96838.72;5023964;28;20048;-61
2023/03/30 06:37:43;;;;;;;14.70;3.58;;;;;;;11.61;100.00;96843.06;5029022;28;20120;-60
2023/03/30 06:40:12;;;;;;;15.45;4.00;;;;;;;11.48;100.00;96861.50;5034231;28;20029;-60
2023/03/30 06:42:40;;;;;;;16.33;3.40;;;;;;;11.48;100.00;96856.06;5027850;28;20045;-59
2023/03/30 06:45:20;;;;;;;12.23;3.67;;;;;;;11.42;100.00;96857.13;5032949;28;20144;-60
2023/03/30 06:47:47;;;;;;;12.30;4.03;;;;;;;11.37;100.00;96868.81;5031139;28;20041;-61
2023/03/30 06:50:14;;;;;;;13.18;3.13;;;;;;;11.33;100.00;96881.28;5026986;28;20425;-61
2023/03/30 06:52:57;;;;;;;11.90;3.25;;;;;;;11.23;100.00;96901.03;5027561;28;20483;-60
2023/03/30 06:55:29;;;;;;;11.60;3.33;;;;;;;11.23;100.00;96905.63;5031541;28;20072;-60
2023/03/30 06:57:55;;;;;;;12.85;3.30;;;;;;;11.20;100.00;96912.41;5025844;28;20033;-61
2023/03/30 07:00:22;;;;;;;13.38;3.97;;;;;;;11.16;100.00;96909.41;5029235;28;20049;-60
2023/03/30 07:03:21;;;;;;;14.20;3.45;;;;;;;11.11;100.00;96895.88;4981219;28;20226;-60
2023/03/30 07:06:18;;;;;;;13.38;3.55;;;;;;;11.08;100.00;96901.81;5007147;28;20706;-50
2023/03/30 07:08:47;;;;;;;9.65;3.33;;;;;;;11.02;100.00;96908.31;5017967;28;20765;-46
2023/03/30 07:11:21;;;;;;;9.48;3.00;;;;;;;10.97;100.00;96913.69;5019325;28;20080;-51
2023/03/30 07:13:49;;;;;;;11.98;3.33;;;;;;;10.92;100.00;96906.38;5021379;28;20213;-47
2023/03/30 07:16:17;;;;;;;9.90;3.70;;;;;;;10.78;100.00;96931.25;5015136;28;20497;-51
2023/03/30 07:18:43;;;;;;;12.23;3.50;;;;;;;10.75;100.00;96950.72;5024979;28;20041;-52
2023/03/30 07:21:10;;;;;;;13.38;3.42;;;;;;;10.63;100.00;96942.81;5021160;28;20111;-55
2023/03/30 07:23:39;;;;;;;10.15;2.90;;;;;;;10.56;100.00;96939.53;5020784;28;20061;-54
2023/03/30 07:26:08;;;;;;;17.08;4.63;;;;;;;10.51;100.00;96920.56;5024074;28;20057;-53
2023/03/30 07:28:46;;;;;;;11.98;4.45;;;;;;;10.45;100.00;96889.94;5021795;28;20664;-54
2023/03/30 07:31:13;;;;;;;14.38;3.75;;;;;;;10.41;100.00;96908.56;5022688;28;20500;-55
2023/03/30 07:33:41;;;;;;;9.60;3.95;;;;;;;10.35;100.00;96903.34;5021960;28;20049;-51
2023/03/30 07:36:12;;;;;;;8.60;3.58;;;;;;;10.33;100.00;96900.13;5030630;28;20045;-54
2023/03/30 07:38:39;;;;;;;13.80;3.78;;;;;;;10.33;100.00;96889.28;5019745;28;20137;-49
2023/03/30 07:41:11;;;;;;;11.02;3.70;;;;;;;10.35;100.00;96871.72;5020096;28;20137;-49
2023/03/30 07:43:41;;;;;;;10.20;3.45;;;;;;;10.34;100.00;96874.69;5023263;28;20045;-46
2023/03/30 07:46:13;;;;;;;10.43;3.70;;;;;;;10.33;100.00;96884.72;5029176;28;20104;-47
2023/03/30 07:48:43;;;;;;;11.60;3.55;;;;;;;10.32;100.00;96901.19;5020701;28;20296;-49
2023/03/30 07:51:12;;;;;;;12.00;3.85;;;;;;;10.31;100.00;96913.09;5019966;28;20526;-47
2023/03/30 07:53:59;;;;;;;8.68;3.33;;;;;;;10.35;100.00;96906.91;5022693;28;20033;-52
2023/03/30 07:56:43;;;;;;;7.72;3.25;;;;;;;10.34;100.00;96935.03;5022466;28;20424;-50
2023/03/30 07:59:12;;;;;;;6.25;2.80;;;;;;;10.37;100.00;96948.06;5028419;28;20095;-48
2023/03/30 08:01:41;;;;;;;8.30;3.03;;;;;;;10.39;100.00;96958.59;5026577;28;20109;-51
2023/03/30 08:04:26;;;;;;;9.35;2.63;;;;;;;10.40;100.00;96969.16;5026677;28;20052;-50
2023/03/30 08:06:53;;;;;;;10.75;2.88;;;;;;;10.43;100.00;96970.53;5025598;28;20056;-51
2023/03/30 08:09:21;;;;;;;13.93;3.88;;;;;;;10.43;100.00;96978.66;5029417;28;20041;-48
2023/03/30 08:11:48;;;;;;;8.77;2.50;;;;;;;10.52;100.00;96973.59;5021379;28;20041;-50
2023/03/30 08:14:16;;;;;;;8.20;2.65;;;;;;;10.61;100.00;96968.53;5028277;28;20795;-52
2023/03/30 08:16:42;;;;;;;6.43;2.20;;;;;;;10.63;100.00;96960.94;5024178;28;20667;-53
2023/03/30 08:19:09;;;;;;;10.63;2.30;;;;;;;10.58;100.00;96969.84;5023528;28;20047;-54
2023/03/30 08:21:35;;;;;;;6.63;2.42;;;;;;;10.56;100.00;96977.41;5025484;28;20128;-52
2023/03/30 08:24:02;;;;;;;6.63;2.58;;;;;;;10.54;100.00;96976.84;5034184;28;20110;-53
2023/03/30 08:26:29;;;;;;;4.72;2.20;;;;;;;10.54;100.00;96957.91;5026736;28;20045;-52
2023/03/30 08:28:56;;;;;;;7.45;2.35;;;;;;;10.57;100.00;96913.28;5035510;28;20033;-51
2023/03/30 08:31:23;;;;;;;6.30;2.22;;;;;;;10.65;100.00;96891.13;5026997;28;20041;-54
2023/03/30 08:33:50;;;;;;;6.53;1.73;;;;;;;10.62;100.00;96861.84;5028292;28;20815;-54
2023/03/30 08:36:18;;;;;;;7.90;1.83;;;;;;;10.61;100.00;96876.47;5026866;28;20120;-53
2023/03/30 08:38:45;;;;;;;5.38;1.77;;;;;;;10.50;100.00;96879.13;5023734;28;20042;-50
2023/03/30 08:41:26;;;;;;;5.78;1.95;;;;;;;10.43;100.00;96886.63;5025795;28;20076;-53
2023/03/30 08:44:03;;;;;;;6.60;2.00;;;;;;;10.40;100.00;96879.84;5028550;28;20069;-63
2023/03/30 08:46:29;;;;;;;5.00;1.88;;;;;;;10.39;100.00;96880.09;5024886;28;20088;-61
2023/03/30 08:49:00;;;;;;;3.40;1.73;;;;;;;10.35;100.00;96874.41;5029789;28;20402;-62
2023/03/30 08:51:29;;;;;;;5.20;1.85;;;;;;;10.37;100.00;96871.47;5024526;28;20600;-61
2023/03/30 08:54:00;;;;;;;5.07;1.80;;;;;;;10.35;100.00;96866.31;5030711;28;20083;-62
2023/03/30 08:56:30;;;;;;;4.15;1.73;;;;;;;10.40;100.00;96847.38;5025933;28;20076;-61
2023/03/30 08:59:05;;;;;;;6.50;2.10;;;;;;;10.51;100.00;96856.38;5018181;28;20695;-61
2023/03/30 09:01:51;;;;;;;3.88;1.60;;;;;;;10.58;100.00;96866.16;5021469;28;20051;-61
2023/03/30 09:04:35;;;;;;;2.63;1.42;;;;;;;10.70;100.00;96874.88;5025738;28;20096;-61
2023/03/30 09:07:13;;;;;;;4.38;1.58;;;;;;;10.76;100.00;96875.72;5028208;28;20157;-63
2023/03/30 09:09:43;;;;;;;4.60;2.10;;;;;;;10.77;100.00;96878.13;5024640;28;20509;-62
2023/03/30 09:12:30;;;;;;;6.20;2.10;;;;;;;10.92;100.00;96871.97;5022025;28;20042;-62
2023/03/30 09:15:05;;;;;;;4.80;1.60;;;;;;;11.12;100.00;96877.69;5026271;28;20045;-62
2023/03/30 09:17:34;;;;;;;5.43;1.85;;;;;;;11.16;100.00;96878.78;5026989;28;20592;-62
2023/03/30 09:20:08;;;;;;;7.78;2.22;;;;;;;11.25;100.00;96885.34;5020113;28;20508;-60
2023/03/30 09:22:39;;;;;;;6.70;1.98;;;;;;;11.29;100.00;96874.75;5024006;28;20111;-62
2023/03/30 09:25:25;;;;;;;4.22;1.65;;;;;;;11.37;100.00;96873.41;5021292;28;20037;-62
2023/03/30 09:28:08;;;;;;;6.95;1.83;;;;;;;11.36;100.00;96875.31;5029476;28;20124;-62
2023/03/30 09:31:01;;;;;;;4.50;2.33;;;;;;;11.41;100.00;96894.28;5027876;28;20139;-61
2023/03/30 09:34:00;;;;;;;3.75;1.40;;;;;;;11.61;100.00;96908.16;5000313;28;20057;-63
2023/03/30 09:36:39;;;;;;;4.30;1.75;;;;;;;11.48;100.00;96912.19;5028191;28;20037;-61
2023/03/30 09:39:17;;;;;;;4.53;1.58;;;;;;;11.46;100.00;96917.88;5027736;28;20072;-61
2023/03/30 09:42:04;;;;;;;4.68;1.70;;;;;;;11.40;100.00;96922.50;5025104;28;20051;-61
2023/03/30 09:44:36;;;;;;;4.32;1.85;;;;;;;11.47;100.00;96919.53;5025627;28;20048;-61
2023/03/30 09:47:21;;;;;;;3.00;1.50;;;;;;;11.48;100.00;96931.97;5024256;28;20069;-60
2023/03/30 09:49:54;;;;;;;4.70;1.45;;;;;;;11.39;100.00;96928.19;5019152;28;20033;-59
2023/03/30 09:52:23;;;;;;;4.28;1.75;;;;;;;11.40;100.00;96937.94;5022488;28;20052;-60
2023/03/30 09:54:50;;;;;;;5.30;1.98;;;;;;;11.32;100.00;96936.56;5023952;28;20048;-60
2023/03/30 09:57:29;;;;;;;4.25;1.52;;;;;;;11.17;100.00;96932.72;5020896;28;20528;-60
2023/03/30 09:59:58;;;;;;;6.10;2.15;;;;;;;11.34;100.00;96938.97;5018392;28;20041;-61
2023/03/30 10:02:29;;;;;;;3.85;1.70;;;;;;;11.29;100.00;96927.09;5021269;28;20049;-61
2023/03/30 10:04:59;;;;;;;4.65;1.77;;;;;;;11.52;100.00;96934.97;5027890;28;20068;-61
2023/03/30 10:07:40;;;;;;;3.28;1.55;;;;;;;11.77;100.00;96934.19;5029150;28;20527;-61
2023/03/30 10:10:26;;;;;;;5.22;1.70;;;;;;;12.00;100.00;96923.88;5021817;28;20114;-61
2023/03/30 10:13:13;;;;;;;5.53;2.10;;;;;;;12.05;100.00;96910.31;5018780;28;20152;-61
2023/03/30 10:15:45;;;;;;;5.72;1.85;;;;;;;12.02;100.00;96908.13;5019366;28;20132;-61
2023/03/30 10:18:23;;;;;;;2.95;1.90;;;;;;;12.21;100.00;96902.97;5022007;28;20052;-61
2023/03/30 10:21:00;;;;;;;3.97;1.70;;;;;;;12.28;100.00;96891.03;5020614;28;20099;-61
2023/03/30 10:23:33;;;;;;;7.50;1.85;;;;;;;12.34;100.00;96879.06;5019350;28;20547;-61
2023/03/30 10:26:02;;;;;;;5.85;2.50;;;;;;;12.68;100.00;96877.59;5020841;28;20055;-61
2023/03/30 10:28:32;;;;;;;4.43;1.63;;;;;;;12.72;100.00;96894.97;5015681;28;20042;-60
2023/03/30 10:31:03;;;;;;;4.10;1.75;;;;;;;12.84;98.92;96906.34;5027136;28;20609;-61
2023/03/30 10:33:36;;;;;;;4.63;2.10;;;;;;;12.94;98.37;96894.59;5019526;28;20038;-60
2023/03/30 10:36:05;;;;;;;3.83;1.63;;;;;;;12.78;100.00;96887.63;5018182;28;20644;-62
2023/03/30 10:38:33;;;;;;;5.07;1.98;;;;;;;12.84;98.91;96879.16;5018257;28;21895;-62
2023/03/30 10:41:06;;;;;;;4.07;1.73;;;;;;;12.79;100.00;96878.38;5019345;28;20045;-62
2023/03/30 10:43:35;;;;;;;4.85;2.13;;;;;;;12.86;97.03;96885.13;5018669;28;20041;-63
2023/03/30 10:46:16;;;;;;;7.25;2.08;;;;;;;12.72;96.27;96889.53;5018300;28;20081;-62
2023/03/30 10:48:54;;;;;;;6.68;1.73;;;;;;;12.80;91.88;96878.09;5009849;28;20042;-63
2023/03/30 10:51:34;;;;;;;5.80;2.10;;;;;;;12.77;91.75;96848.78;5014781;28;20056;-63
2023/03/30 10:54:19;;;;;;;5.45;2.08;;;;;;;12.87;88.22;96856.06;5014458;28;20050;-63
2023/03/30 10:57:10;;;;;;;7.25;2.00;;;;;;;13.17;87.24;96867.84;5025805;28;20045;-63
2023/03/30 10:59:42;;;;;;;5.57;2.15;;;;;;;13.30;85.37;96873.75;5028539;28;20041;-63
2023/03/30 11:02:47;;;;;;;5.28;2.22;;;;;;;13.51;86.19;96878.00;5025270;28;20045;-64
2023/03/30 11:05:18;;;;;;;3.78;1.83;;;;;;;13.77;83.30;96880.50;5021196;28;20051;-64
2023/03/30 11:08:06;;;;;;;6.22;1.90;;;;;;;13.68;84.31;96890.38;5021615;28;20041;-63
2023/03/30 11:10:48;;;;;;;6.55;2.17;;;;;;;13.62;86.41;96886.88;5027941;28;20045;-64
2023/03/30 11:13:25;;;;;;;4.68;1.65;;;;;;;13.46;87.05;96899.75;5034562;28;20065;-64
2023/03/30 11:15:58;;;;;;;5.15;1.50;;;;;;;13.56;84.98;96887.19;5031968;28;20134;-62
2023/03/30 11:18:38;;;;;;;6.32;1.58;;;;;;;13.51;85.46;96907.06;5025901;28;20405;-61
2023/03/30 11:21:18;;;;;;;5.27;1.73;;;;;;;13.44;87.00;96899.22;5023694;28;20071;-63
2023/03/30 11:23:54;;;;;;;3.05;1.40;;;;;;;13.32;87.99;96883.25;5032734;28;20057;-60
2023/03/30 11:26:44;;;;;;;5.18;1.60;;;;;;;13.37;90.06;96877.78;5027180;28;20471;-62
2023/03/30 11:29:43;;;;;;;4.53;1.50;;;;;;;13.23;88.09;96887.66;5020543;28;20046;-60
2023/03/30 11:32:23;;;;;;;5.18;1.55;;;;;;;13.21;88.71;96892.56;5024364;28;20120;-61
2023/03/30 11:35:00;;;;;;;3.50;1.30;;;;;;;13.10;90.22;96892.63;5028170;28;20607;-62
2023/03/30 11:37:45;;;;;;;5.90;2.13;;;;;;;13.03;89.07;96900.25;5035726;28;20051;-65
2023/03/30 11:40:20;;;;;;;7.25;1.95;;;;;;;13.12;89.71;96897.78;5028124;28;20042;-64
2023/03/30 11:42:50;;;;;;;5.53;1.70;;;;;;;13.11;91.29;96904.28;5029770;28;20037;-66
2023/03/30 11:45:47;;;;;;;6.18;2.20;;;;;;;13.32;90.39;96887.88;5032387;28;20092;-63
2023/03/30 11:48:35;;;;;;;3.70;1.60;;;;;;;13.38;88.14;96890.25;5025645;28;20041;-63
2023/03/30 11:51:23;;;;;;;7.20;2.17;;;;;;;13.37;90.89;96898.69;5027449;28;20111;-65
2023/03/30 11:54:06;;;;;;;4.15;1.50;;;;;;;13.24;89.40;96900.16;5032251;28;20102;-66
2023/03/30 11:56:42;;;;;;;3.72;1.70;;;;;;;13.47;88.70;96903.28;5027254;28;20037;-64
2023/03/30 11:59:36;;;;;;;4.00;1.75;;;;;;;13.35;89.71;96903.63;5018766;28;20129;-64
2023/03/30 12:02:06;;;;;;;3.35;1.73;;;;;;;13.24;88.95;96909.09;5032519;28;20099;-63
2023/03/30 12:04:50;;;;;;;5.75;2.03;;;;;;;13.38;90.08;96887.56;5029285;28;20056;-63
2023/03/30 12:07:25;;;;;;;8.23;2.83;;;;;;;13.36;86.58;96899.81;5034827;28;20045;-64